createdAt,value
2019-06-10T00:00:42.028Z,23.20
2019-06-10T00:03:11.807Z,23.10
2019-06-10T00:05:41.605Z,23.10
2019-06-10T00:08:11.982Z,23.20
2019-06-10T00:10:42.185Z,23.10
2019-06-10T00:13:12.041Z,23.10
2019-06-10T00:15:41.417Z,23.10
2019-06-10T00:18:34.034Z,23.10
2019-06-10T00:20:41.347Z,23.10
2019-06-10T00:23:12.191Z,23.10
2019-06-10T00:25:41.586Z,23.10
2019-06-10T00:28:12.174Z,23.10
2019-06-10T00:30:41.295Z,23.00
2019-06-10T00:33:12.703Z,23.10
2019-06-10T00:35:41.216Z,23.00
2019-06-10T00:38:14.070Z,23.00
2019-06-10T00:40:41.511Z,23.00
2019-06-10T00:43:13.270Z,23.00
2019-06-10T00:45:41.179Z,22.90
2019-06-10T00:48:24.726Z,22.90
2019-06-10T00:50:41.752Z,22.90
2019-06-10T00:53:14.272Z,22.90
2019-06-10T00:55:41.446Z,22.90
2019-06-10T00:58:13.669Z,22.80
2019-06-10T01:00:41.643Z,22.80
2019-06-10T01:03:13.450Z,22.70
2019-06-10T01:05:42.163Z,22.70
2019-06-10T01:08:15.135Z,22.70
2019-06-10T01:10:43.919Z,22.80
2019-06-10T01:13:14.022Z,22.70
2019-06-10T01:15:42.864Z,22.70
2019-06-10T01:18:30.569Z,22.70
2019-06-10T01:20:41.770Z,22.70
2019-06-10T01:23:13.568Z,22.70
2019-06-10T01:25:42.376Z,22.70
2019-06-10T01:28:13.401Z,22.70
2019-06-10T01:30:41.564Z,22.70
2019-06-10T01:33:12.372Z,22.70
2019-06-10T01:35:41.589Z,22.70
2019-06-10T01:38:13.026Z,22.70
2019-06-10T01:40:42.107Z,22.70
2019-06-10T01:43:13.993Z,22.70
2019-06-10T01:45:42.198Z,22.70
2019-06-10T01:48:12.079Z,22.70
2019-06-10T01:50:41.719Z,22.70
2019-06-10T01:53:14.004Z,22.70
2019-06-10T01:55:41.905Z,22.70
2019-06-10T01:58:14.663Z,22.70
2019-06-10T02:00:42.625Z,22.70
2019-06-10T02:03:13.533Z,22.70
2019-06-10T02:05:42.043Z,22.70
2019-06-10T02:08:11.710Z,22.70
2019-06-10T02:10:41.564Z,22.60
2019-06-10T02:13:13.640Z,22.70
2019-06-10T02:15:42.334Z,22.60
2019-06-10T02:18:13.506Z,22.70
2019-06-10T02:20:41.325Z,22.70
2019-06-10T02:23:12.300Z,22.70
2019-06-10T02:25:41.263Z,22.70
2019-06-10T02:28:13.093Z,22.70
2019-06-10T02:30:50.271Z,22.70
2019-06-10T02:33:12.704Z,22.80
2019-06-10T02:35:48.443Z,22.70
2019-06-10T02:38:16.847Z,22.80
2019-06-10T02:40:43.211Z,22.80
2019-06-10T02:43:17.456Z,22.80
2019-06-10T02:45:44.576Z,22.80
2019-06-10T02:48:16.945Z,22.70
2019-06-10T02:50:53.885Z,22.80
2019-06-10T02:53:30.111Z,22.80
2019-06-10T02:55:54.168Z,22.80
2019-06-10T02:58:30.382Z,22.80
2019-06-10T03:00:54.648Z,22.80
2019-06-10T03:03:35.918Z,22.80
2019-06-10T03:05:54.098Z,22.80
2019-06-10T03:08:28.659Z,22.80
2019-06-10T03:10:54.672Z,22.80
2019-06-10T03:13:25.454Z,22.80
2019-06-10T03:16:13.129Z,22.90
2019-06-10T03:18:43.426Z,22.90
2019-06-10T03:21:12.499Z,23.00
2019-06-10T03:23:42.718Z,23.00
2019-06-10T03:26:12.375Z,23.10
2019-06-10T03:28:42.837Z,23.10
2019-06-10T03:31:15.153Z,23.20
2019-06-10T03:33:47.335Z,23.10
2019-06-10T03:36:12.533Z,23.10
2019-06-10T03:38:43.228Z,23.10
2019-06-10T03:41:12.460Z,23.20
2019-06-10T03:43:43.018Z,23.20
2019-06-10T03:46:13.683Z,23.20
2019-06-10T03:48:43.352Z,23.20
2019-06-10T03:51:12.763Z,23.30
2019-06-10T03:53:42.610Z,23.40
2019-06-10T03:56:12.829Z,23.40
2019-06-10T03:58:43.013Z,23.30
2019-06-10T04:01:12.463Z,23.40
2019-06-10T04:03:42.766Z,23.40
2019-06-10T04:06:12.932Z,23.50
2019-06-10T04:08:43.370Z,23.60
2019-06-10T04:11:12.278Z,23.60
2019-06-10T04:13:43.170Z,23.60
2019-06-10T04:16:13.126Z,23.60
2019-06-10T04:18:42.965Z,23.60
2019-06-10T04:21:12.862Z,23.70
2019-06-10T04:23:42.335Z,23.70
2019-06-10T04:26:12.824Z,23.70
2019-06-10T04:28:42.998Z,23.80
2019-06-10T04:31:13.082Z,23.80
2019-06-10T04:33:42.254Z,23.90
2019-06-10T04:36:13.245Z,23.90
2019-06-10T04:38:43.178Z,23.90
2019-06-10T04:41:12.572Z,24.10
2019-06-10T04:43:43.233Z,24.40
2019-06-10T04:46:12.586Z,24.50
2019-06-10T04:48:42.643Z,24.70
2019-06-10T04:51:12.952Z,25.00
2019-06-10T04:53:43.482Z,25.20
2019-06-10T04:56:12.344Z,25.40
2019-06-10T04:58:43.325Z,25.80
2019-06-10T05:01:12.449Z,26.10
2019-06-10T05:03:43.173Z,26.30
2019-06-10T05:06:12.331Z,26.60
2019-06-10T05:08:42.676Z,26.70
2019-06-10T05:11:12.849Z,26.50
2019-06-10T05:13:42.856Z,26.40
2019-06-10T05:16:12.488Z,26.80
2019-06-10T05:18:42.478Z,27.40
2019-06-10T05:21:13.110Z,28.10
2019-06-10T05:23:43.066Z,28.40
2019-06-10T05:26:13.338Z,28.70
2019-06-10T05:28:43.228Z,29.00
2019-06-10T05:31:12.895Z,28.90
2019-06-10T05:33:42.662Z,29.10
2019-06-10T05:36:13.048Z,29.40
2019-06-10T05:38:43.477Z,29.60
2019-06-10T05:41:13.354Z,30.00
2019-06-10T05:43:43.090Z,30.10
2019-06-10T05:46:13.356Z,30.40
2019-06-10T05:48:43.798Z,30.70
2019-06-10T05:51:12.788Z,30.70
2019-06-10T05:53:42.700Z,30.50
2019-06-10T05:56:12.806Z,30.20
2019-06-10T05:58:43.713Z,30.20
2019-06-10T06:01:13.228Z,30.30
2019-06-10T06:03:43.888Z,30.40
2019-06-10T06:06:12.638Z,30.30
2019-06-10T06:08:42.836Z,30.30
2019-06-10T06:11:12.767Z,30.10
2019-06-10T06:13:43.207Z,29.90
2019-06-10T06:16:12.598Z,29.70
2019-06-10T06:18:42.211Z,29.40
2019-06-10T06:21:22.640Z,29.40
2019-06-10T06:23:43.562Z,29.30
2019-06-10T06:26:16.375Z,28.90
2019-06-10T06:28:43.160Z,28.80
2019-06-10T06:31:12.843Z,28.80
2019-06-10T06:33:43.314Z,28.70
2019-06-10T06:36:12.578Z,28.40
2019-06-10T06:38:43.655Z,28.60
2019-06-10T06:41:13.621Z,28.70
2019-06-10T06:43:44.969Z,28.70
2019-06-10T06:46:12.823Z,28.60
2019-06-10T06:48:43.718Z,28.70
2019-06-10T06:51:12.976Z,28.60
2019-06-10T06:53:50.597Z,28.60
2019-06-10T06:56:12.684Z,28.40
2019-06-10T06:58:43.284Z,28.20
2019-06-10T07:01:14.572Z,28.10
2019-06-10T07:03:45.029Z,28.10
2019-06-10T07:06:14.683Z,28.10
2019-06-10T07:09:00.606Z,28.20
2019-06-10T07:11:18.409Z,28.30
2019-06-10T07:13:47.244Z,28.20
2019-06-10T07:16:16.008Z,28.30
2019-06-10T07:18:49.981Z,28.10
2019-06-10T07:21:14.810Z,28.10
2019-06-10T07:23:46.895Z,28.00
2019-06-10T07:26:13.641Z,28.00
2019-06-10T07:28:46.592Z,28.10
2019-06-10T07:31:23.087Z,28.00
2019-06-10T07:33:45.939Z,27.90
2019-06-10T07:36:13.245Z,27.90
2019-06-10T07:38:47.014Z,28.00
2019-06-10T07:41:12.681Z,28.00
2019-06-10T07:43:47.519Z,28.00
2019-06-10T07:46:13.418Z,27.90
2019-06-10T07:48:46.230Z,28.00
2019-06-10T07:51:13.088Z,28.00
2019-06-10T07:53:45.106Z,27.90
2019-06-10T07:56:12.978Z,27.80
2019-06-10T07:58:46.947Z,27.80
2019-06-10T08:01:13.118Z,27.80
2019-06-10T08:03:45.035Z,27.80
2019-06-10T08:06:12.875Z,27.80
2019-06-10T08:08:43.915Z,27.80
2019-06-10T08:11:13.665Z,27.90
2019-06-10T08:13:44.715Z,28.00
2019-06-10T08:16:13.274Z,28.30
2019-06-10T08:19:09.736Z,28.20
2019-06-10T08:21:12.472Z,28.20
2019-06-10T08:23:45.134Z,28.60
2019-06-10T08:26:12.808Z,28.70
2019-06-10T08:28:42.508Z,29.70
2019-06-10T08:31:12.312Z,31.10
2019-06-10T08:33:44.358Z,32.10
2019-06-10T08:36:13.645Z,32.80
2019-06-10T08:38:45.009Z,32.40
2019-06-10T08:41:12.362Z,33.20
2019-06-10T08:43:44.765Z,33.40
2019-06-10T08:46:13.195Z,33.60
2019-06-10T08:48:43.868Z,33.10
2019-06-10T08:51:12.567Z,32.60
2019-06-10T08:53:44.175Z,32.30
2019-06-10T08:56:13.087Z,32.30
2019-06-10T08:58:45.700Z,32.20
2019-06-10T09:01:13.235Z,31.90
2019-06-10T09:03:46.301Z,31.50
2019-06-10T09:06:13.321Z,31.20
2019-06-10T09:08:45.823Z,30.70
2019-06-10T09:11:13.041Z,30.40
2019-06-10T09:13:46.379Z,30.20
2019-06-10T09:16:18.902Z,30.10
2019-06-10T09:18:47.346Z,30.00
2019-06-10T09:21:13.045Z,29.90
2019-06-10T09:23:44.391Z,29.90
2019-06-10T09:26:12.505Z,29.90
2019-06-10T09:28:44.997Z,29.80
2019-06-10T09:31:14.070Z,29.80
2019-06-10T09:33:47.945Z,29.80
2019-06-10T09:36:12.612Z,29.80
2019-06-10T09:38:45.249Z,29.70
2019-06-10T09:41:14.142Z,29.70
2019-06-10T09:43:46.871Z,29.70
2019-06-10T09:46:13.917Z,29.70
2019-06-10T09:48:47.582Z,29.60
2019-06-10T09:51:13.599Z,29.60
2019-06-10T09:53:50.115Z,29.70
2019-06-10T09:56:12.615Z,29.60
2019-06-10T09:58:44.728Z,29.60
2019-06-10T10:01:13.360Z,29.60
2019-06-10T10:03:45.409Z,29.50
2019-06-10T10:06:15.660Z,29.50
2019-06-10T10:08:46.036Z,29.50
2019-06-10T10:11:13.269Z,29.40
2019-06-10T10:13:43.954Z,29.30
2019-06-10T10:16:13.201Z,29.30
2019-06-10T10:18:45.853Z,29.30
2019-06-10T10:21:13.021Z,29.20
2019-06-10T10:23:52.528Z,29.20
2019-06-10T10:26:13.216Z,29.20
2019-06-10T10:28:43.953Z,29.20
2019-06-10T10:31:13.245Z,29.10
2019-06-10T10:33:42.535Z,29.10
2019-06-10T10:36:14.119Z,29.10
2019-06-10T10:38:42.621Z,29.00
2019-06-10T10:41:13.297Z,28.90
2019-06-10T10:43:44.864Z,29.00
2019-06-10T10:46:13.825Z,29.00
2019-06-10T10:48:43.002Z,29.00
2019-06-10T10:51:13.082Z,29.00
2019-06-10T10:53:46.789Z,29.00
2019-06-10T10:56:12.975Z,28.90
2019-06-10T10:58:43.747Z,28.90
2019-06-10T11:01:14.946Z,28.80
2019-06-10T11:03:45.471Z,28.80
2019-06-10T11:06:13.451Z,28.80
2019-06-10T11:08:44.131Z,28.80
2019-06-10T11:11:13.978Z,28.80
2019-06-10T11:13:45.473Z,28.80
2019-06-10T11:16:14.422Z,28.70
2019-06-10T11:18:42.984Z,28.70
2019-06-10T11:21:13.296Z,28.70
2019-06-10T11:23:43.524Z,28.70
2019-06-10T11:26:13.062Z,28.70
2019-06-10T11:28:42.860Z,28.70
2019-06-10T11:31:13.787Z,28.70
2019-06-10T11:33:43.446Z,28.70
2019-06-10T11:36:13.560Z,28.70
2019-06-10T11:38:42.494Z,28.60
2019-06-10T11:41:13.551Z,28.60
2019-06-10T11:43:42.949Z,28.60
2019-06-10T11:46:13.681Z,28.50
2019-06-10T11:48:44.083Z,28.50
2019-06-10T11:51:12.968Z,28.50
2019-06-10T11:53:43.934Z,28.50
2019-06-10T11:56:13.085Z,28.50
2019-06-10T11:58:42.726Z,28.50
2019-06-10T12:01:13.108Z,28.50
2019-06-10T12:03:43.170Z,28.50
2019-06-10T12:06:13.705Z,28.50
2019-06-10T12:08:43.427Z,28.50
2019-06-10T12:11:12.994Z,28.50
2019-06-10T12:13:42.832Z,28.50
2019-06-10T12:18:42.727Z,28.60
2019-06-10T12:21:13.158Z,28.50
2019-06-10T12:23:43.565Z,28.50
2019-06-10T12:26:12.475Z,28.50
2019-06-10T12:28:43.250Z,28.40
2019-06-10T12:31:13.495Z,28.40
2019-06-10T12:33:42.240Z,28.40
2019-06-10T12:36:12.846Z,28.40
2019-06-10T12:38:43.296Z,28.40
2019-06-10T12:41:13.965Z,28.40
2019-06-10T12:43:43.291Z,28.40
2019-06-10T12:46:12.733Z,28.40
2019-06-10T12:48:42.693Z,28.40
2019-06-10T12:51:13.600Z,28.30
2019-06-10T12:53:43.321Z,28.30
2019-06-10T12:56:14.742Z,28.30
2019-06-10T12:58:43.132Z,28.30
2019-06-10T13:01:12.225Z,28.30
2019-06-10T13:03:43.234Z,28.30
2019-06-10T13:06:12.882Z,28.30
2019-06-10T13:08:43.565Z,28.30
2019-06-10T13:11:14.910Z,28.20
2019-06-10T13:13:44.412Z,28.20
2019-06-10T13:16:14.194Z,28.20
2019-06-10T13:18:43.495Z,28.20
2019-06-10T13:21:16.807Z,28.30
2019-06-10T13:23:43.123Z,28.30
2019-06-10T13:26:15.933Z,28.30
2019-06-10T13:28:44.061Z,28.30
2019-06-10T13:31:14.018Z,28.30
2019-06-10T13:33:43.187Z,28.30
2019-06-10T13:36:12.973Z,28.30
2019-06-10T13:38:42.881Z,28.30
2019-06-10T13:41:11.717Z,28.20
2019-06-10T13:43:40.354Z,28.20
2019-06-10T13:46:10.814Z,28.20
2019-06-10T13:48:39.182Z,28.30
2019-06-10T13:51:10.982Z,28.30
2019-06-10T13:53:37.998Z,28.30
2019-06-10T13:56:27.096Z,28.30
2019-06-10T13:58:36.769Z,28.30
2019-06-10T14:01:10.067Z,28.30
2019-06-10T14:03:35.906Z,28.30
2019-06-10T14:06:23.550Z,28.30
2019-06-10T14:08:35.923Z,28.30
2019-06-10T14:11:07.437Z,28.20
2019-06-10T14:13:34.802Z,28.20
2019-06-10T14:16:03.609Z,28.20
2019-06-10T14:18:33.598Z,28.10
2019-06-10T14:21:07.223Z,28.10
2019-06-10T14:23:33.197Z,28.10
2019-06-10T14:26:03.241Z,28.10
2019-06-10T14:28:40.828Z,28.10
2019-06-10T14:31:06.800Z,28.20
2019-06-10T14:33:33.136Z,28.20
2019-06-10T14:36:05.020Z,28.20
2019-06-10T14:38:32.689Z,28.30
2019-06-10T14:41:04.341Z,28.30
2019-06-10T14:43:33.174Z,28.30
2019-06-10T14:46:02.047Z,28.30
2019-06-10T14:48:33.456Z,28.30
2019-06-10T14:51:03.030Z,28.30
2019-06-10T14:53:33.460Z,28.30
2019-06-10T14:56:03.761Z,28.30
2019-06-10T14:58:31.721Z,28.30
2019-06-10T15:01:04.229Z,28.30
2019-06-10T15:03:32.807Z,28.30
2019-06-10T15:06:03.108Z,28.20
2019-06-10T15:08:32.271Z,28.20
2019-06-10T15:11:01.139Z,28.20
2019-06-10T15:13:32.576Z,28.20
2019-06-10T15:16:04.040Z,28.20
2019-06-10T15:18:32.814Z,28.20
2019-06-10T15:21:02.738Z,28.20
2019-06-10T15:23:32.443Z,28.20
2019-06-10T15:26:02.829Z,28.20
2019-06-10T15:28:31.756Z,28.20
2019-06-10T15:31:02.810Z,28.10
2019-06-10T15:33:32.610Z,28.20
2019-06-10T15:36:02.372Z,28.10
2019-06-10T15:38:32.864Z,28.10
2019-06-10T15:41:01.517Z,28.10
2019-06-10T15:43:30.133Z,28.10
2019-06-10T15:45:58.705Z,28.10
2019-06-10T15:48:27.282Z,28.10
2019-06-10T15:50:55.882Z,28.10
2019-06-10T15:53:25.833Z,28.10
2019-06-10T15:56:13.023Z,28.10
2019-06-10T15:58:26.117Z,28.00
2019-06-10T16:00:54.895Z,28.00
2019-06-10T16:03:25.667Z,28.00
2019-06-10T16:05:53.712Z,28.00
2019-06-10T16:08:22.673Z,28.00
2019-06-10T16:10:52.686Z,28.00
2019-06-10T16:13:25.224Z,28.00
2019-06-10T16:15:53.199Z,27.90
2019-06-10T16:18:26.071Z,27.90
2019-06-10T16:20:52.945Z,27.90
2019-06-10T16:23:24.297Z,27.90
2019-06-10T16:25:53.470Z,27.90
2019-06-10T16:28:23.478Z,27.90
2019-06-10T16:30:53.815Z,27.80
2019-06-10T16:33:26.095Z,27.90
2019-06-10T16:35:52.910Z,27.80
2019-06-10T16:38:23.708Z,27.80
2019-06-10T16:40:53.715Z,27.80
2019-06-10T16:43:24.026Z,27.80
2019-06-10T16:45:52.589Z,27.80
2019-06-10T16:48:21.850Z,27.70
2019-06-10T16:50:54.075Z,27.70
2019-06-10T16:53:27.880Z,27.70
2019-06-10T16:55:52.951Z,27.60
2019-06-10T16:58:25.178Z,27.60
2019-06-10T17:00:51.929Z,27.60
2019-06-10T17:03:24.671Z,27.60
2019-06-10T17:05:53.119Z,27.60
2019-06-10T17:08:25.937Z,27.60
2019-06-10T17:10:52.740Z,27.60
2019-06-10T17:13:24.939Z,27.60
2019-06-10T17:15:53.803Z,27.50
2019-06-10T17:18:23.638Z,27.50
2019-06-10T17:20:53.517Z,27.50
2019-06-10T17:23:26.507Z,27.50
2019-06-10T17:25:55.698Z,27.50
2019-06-10T17:28:28.949Z,27.50
2019-06-10T17:30:56.878Z,27.50
2019-06-10T17:33:27.211Z,27.50
2019-06-10T17:35:55.709Z,27.50
2019-06-10T17:38:24.717Z,27.50
2019-06-10T17:40:53.504Z,27.50
2019-06-10T17:43:23.327Z,27.50
2019-06-10T17:45:52.718Z,27.50
2019-06-10T17:48:23.691Z,27.50
2019-06-10T17:50:52.465Z,27.40
2019-06-10T17:53:22.388Z,27.40
2019-06-10T17:55:51.207Z,27.40
2019-06-10T17:58:37.621Z,27.40
2019-06-10T18:00:52.842Z,27.40
2019-06-10T18:03:22.632Z,27.40
2019-06-10T18:05:53.114Z,27.40
2019-06-10T18:08:22.855Z,27.40
2019-06-10T18:10:53.490Z,27.40
2019-06-10T18:13:22.711Z,27.30
2019-06-10T18:15:53.470Z,27.30
2019-06-10T18:18:21.926Z,27.30
2019-06-10T18:20:53.599Z,27.30
2019-06-10T18:23:22.944Z,27.30
2019-06-10T18:25:52.768Z,27.30
2019-06-10T18:28:22.592Z,27.30
2019-06-10T18:30:53.141Z,27.30
2019-06-10T18:33:22.950Z,27.30
2019-06-10T18:35:53.259Z,27.30
2019-06-10T18:38:22.281Z,27.30
2019-06-10T18:40:53.390Z,27.30
2019-06-10T18:43:23.020Z,27.20
2019-06-10T18:45:53.205Z,27.30
2019-06-10T18:48:23.131Z,27.20
2019-06-10T18:50:53.268Z,27.20
2019-06-10T18:53:23.446Z,27.20
2019-06-10T18:55:54.524Z,27.20
2019-06-10T18:58:22.531Z,27.20
2019-06-10T19:01:00.652Z,27.20
2019-06-10T19:03:23.326Z,27.20
2019-06-10T19:05:52.990Z,27.20
2019-06-10T19:08:22.529Z,27.10
2019-06-10T19:10:53.377Z,27.10
2019-06-10T19:13:22.521Z,27.10
2019-06-10T19:15:53.166Z,27.10
2019-06-10T19:18:23.248Z,27.10
2019-06-10T19:20:53.444Z,27.10
2019-06-10T19:23:22.919Z,27.10
2019-06-10T19:25:52.604Z,27.10
2019-06-10T19:28:22.773Z,27.10
2019-06-10T19:30:53.396Z,27.10
2019-06-10T19:33:23.699Z,27.10
2019-06-10T19:35:53.200Z,27.10
2019-06-10T19:38:23.160Z,27.10
2019-06-10T19:40:52.491Z,27.10
2019-06-10T19:43:21.125Z,27.10
2019-06-10T19:45:49.718Z,27.10
2019-06-10T19:48:18.339Z,27.10
2019-06-10T19:50:50.126Z,27.10
2019-06-10T19:53:17.845Z,27.00
2019-06-10T19:55:46.450Z,27.00
2019-06-10T19:58:15.043Z,27.00
2019-06-10T20:00:50.951Z,27.00
2019-06-10T20:03:14.178Z,26.90
2019-06-10T20:05:45.288Z,26.90
2019-06-10T20:08:13.028Z,27.00
2019-06-10T20:10:42.408Z,26.90
2019-06-10T20:13:11.112Z,26.90
2019-06-10T20:15:39.713Z,26.90
2019-06-10T20:18:08.344Z,26.90
2019-06-10T20:20:38.267Z,26.90
2019-06-10T20:23:08.863Z,26.90
2019-06-10T20:25:38.365Z,26.90
2019-06-10T20:28:07.267Z,26.90
2019-06-10T20:30:37.277Z,26.90
2019-06-10T20:33:05.996Z,26.90
2019-06-10T20:35:34.621Z,26.90
2019-06-10T20:38:05.040Z,26.90
2019-06-10T20:40:35.605Z,26.80
2019-06-10T20:43:03.722Z,26.80
2019-06-10T20:45:33.206Z,26.80
2019-06-10T20:48:02.948Z,26.80
2019-06-10T20:50:32.383Z,26.80
2019-06-10T20:53:11.876Z,26.80
2019-06-10T20:55:40.534Z,26.80
2019-06-10T20:58:06.230Z,26.80
2019-06-10T21:00:45.655Z,26.80
2019-06-10T21:03:08.962Z,26.70
2019-06-10T21:05:37.522Z,26.70
2019-06-10T21:08:06.540Z,26.70
2019-06-10T21:10:37.102Z,26.70
2019-06-10T21:13:06.897Z,26.70
2019-06-10T21:15:36.820Z,26.70
2019-06-10T21:18:06.570Z,26.70
2019-06-10T21:20:35.118Z,26.70
2019-06-10T21:23:04.384Z,26.70
2019-06-10T21:25:33.028Z,26.70
2019-06-10T21:28:03.237Z,26.70
2019-06-10T21:30:41.439Z,26.70
2019-06-10T21:33:03.494Z,26.60
2019-06-10T21:35:34.918Z,26.60
2019-06-10T21:38:03.573Z,26.60
2019-06-10T21:40:33.056Z,26.60
2019-06-10T21:43:02.826Z,26.60
2019-06-10T21:45:32.641Z,26.60
2019-06-10T21:48:02.369Z,26.60
2019-06-10T21:50:33.377Z,26.60
2019-06-10T21:53:02.904Z,26.60
2019-06-10T21:55:33.000Z,26.60
2019-06-10T21:58:03.696Z,26.60
2019-06-10T22:00:51.642Z,26.50
2019-06-10T22:03:04.765Z,26.50
2019-06-10T22:05:33.413Z,26.50
2019-06-10T22:08:03.155Z,26.50
2019-06-10T22:10:33.598Z,26.50
2019-06-10T22:13:03.170Z,26.50
2019-06-10T22:15:33.304Z,26.50
2019-06-10T22:18:02.422Z,26.50
2019-06-10T22:20:32.470Z,26.50
2019-06-10T22:23:02.664Z,26.50
2019-06-10T22:25:32.879Z,26.50
2019-06-10T22:28:02.780Z,26.50
2019-06-10T22:30:32.164Z,26.50
2019-06-10T22:33:03.224Z,26.50
2019-06-10T22:35:31.299Z,26.50
2019-06-10T22:37:59.882Z,26.50
2019-06-10T22:40:28.458Z,26.40
2019-06-10T22:42:57.036Z,26.40
2019-06-10T22:45:25.634Z,26.40
2019-06-10T22:47:55.342Z,26.40
2019-06-10T22:50:24.445Z,26.40
2019-06-10T22:52:55.534Z,26.40
2019-06-10T22:55:23.296Z,26.40
2019-06-10T22:57:54.679Z,26.40
2019-06-10T23:00:22.864Z,26.40
2019-06-10T23:02:54.642Z,26.40
2019-06-10T23:05:23.221Z,26.40
2019-06-10T23:07:53.305Z,26.40
2019-06-10T23:10:22.865Z,26.40
2019-06-10T23:12:54.950Z,26.40
2019-06-10T23:15:23.449Z,26.30
2019-06-10T23:17:55.064Z,26.40
2019-06-10T23:20:22.572Z,26.40
2019-06-10T23:22:54.404Z,26.40
2019-06-10T23:25:22.064Z,26.30
2019-06-10T23:27:54.434Z,26.30
2019-06-10T23:30:22.427Z,26.30
2019-06-10T23:32:54.494Z,26.30
2019-06-10T23:35:23.032Z,26.30
2019-06-10T23:37:55.101Z,26.30
2019-06-10T23:40:23.464Z,26.30
2019-06-10T23:42:53.132Z,26.30
2019-06-10T23:45:22.474Z,26.30
2019-06-10T23:47:52.949Z,26.30
2019-06-10T23:50:22.500Z,26.30
2019-06-10T23:52:54.122Z,26.30
2019-06-10T23:55:22.768Z,26.30
2019-06-10T23:57:52.986Z,26.30
